sensor_id;sensor_type;location;lat;lon;timestamp;P1;durP1;ratioP1;P2;durP2;ratioP2
8825;SDS011;4449;50.872;4.714;2023-08-01T00:03:26;1.50;;;1.40;;
8825;SDS011;4449;50.872;4.714;2023-08-01T00:05:54;1.33;;;1.33;;
8825;SDS011;4449;50.872;4.714;2023-08-01T00:08:22;2.00;;;1.30;;
8825;SDS011;4449;50.872;4.714;2023-08-01T00:10:50;2.70;;;1.30;;
8825;SDS011;4449;50.872;4.714;2023-08-01T00:13:17;1.40;;;1.30;;
8825;SDS011;4449;50.872;4.714;2023-08-01T00:15:45;1.65;;;1.55;;
8825;SDS011;4449;50.872;4.714;2023-08-01T00:18:13;1.60;;;1.40;;
8825;SDS011;4449;50.872;4.714;2023-08-01T00:20:42;2.58;;;1.75;;
8825;SDS011;4449;50.872;4.714;2023-08-01T00:23:10;1.63;;;1.53;;
8825;SDS011;4449;50.872;4.714;2023-08-01T00:25:38;1.73;;;1.50;;
8825;SDS011;4449;50.872;4.714;2023-08-01T00:28:05;1.43;;;1.43;;
8825;SDS011;4449;50.872;4.714;2023-08-01T00:30:33;2.40;;;2.20;;
8825;SDS011;4449;50.872;4.714;2023-08-01T00:33:01;2.03;;;1.80;;
8825;SDS011;4449;50.872;4.714;2023-08-01T00:35:28;1.60;;;1.50;;
8825;SDS011;4449;50.872;4.714;2023-08-01T00:37:57;1.88;;;1.67;;
8825;SDS011;4449;50.872;4.714;2023-08-01T00:40:29;1.88;;;1.67;;
8825;SDS011;4449;50.872;4.714;2023-08-01T00:42:57;3.00;;;1.65;;
8825;SDS011;4449;50.872;4.714;2023-08-01T00:45:25;2.97;;;1.80;;
8825;SDS011;4449;50.872;4.714;2023-08-01T00:47:53;1.92;;;1.80;;
8825;SDS011;4449;50.872;4.714;2023-08-01T00:50:21;2.13;;;1.92;;
8825;SDS011;4449;50.872;4.714;2023-08-01T00:52:50;3.17;;;2.00;;
8825;SDS011;4449;50.872;4.714;2023-08-01T00:55:20;2.65;;;1.73;;
8825;SDS011;4449;50.872;4.714;2023-08-01T00:57:48;2.35;;;2.13;;
8825;SDS011;4449;50.872;4.714;2023-08-01T01:00:16;1.92;;;1.83;;
8825;SDS011;4449;50.872;4.714;2023-08-01T01:02:44;2.50;;;2.30;;
8825;SDS011;4449;50.872;4.714;2023-08-01T01:05:12;2.10;;;1.85;;
8825;SDS011;4449;50.872;4.714;2023-08-01T01:07:40;2.67;;;2.03;;
8825;SDS011;4449;50.872;4.714;2023-08-01T01:10:09;2.22;;;1.80;;
8825;SDS011;4449;50.872;4.714;2023-08-01T01:12:38;3.20;;;2.00;;
8825;SDS011;4449;50.872;4.714;2023-08-01T01:15:06;2.42;;;2.22;;
8825;SDS011;4449;50.872;4.714;2023-08-01T01:17:34;2.50;;;2.22;;
8825;SDS011;4449;50.872;4.714;2023-08-01T01:20:02;2.33;;;2.10;;
8825;SDS011;4449;50.872;4.714;2023-08-01T01:22:31;6.25;;;2.63;;
8825;SDS011;4449;50.872;4.714;2023-08-01T01:24:59;2.60;;;2.40;;
8825;SDS011;4449;50.872;4.714;2023-08-01T01:27:28;2.40;;;2.10;;
8825;SDS011;4449;50.872;4.714;2023-08-01T01:29:56;2.55;;;2.45;;
8825;SDS011;4449;50.872;4.714;2023-08-01T01:32:24;3.28;;;2.63;;
8825;SDS011;4449;50.872;4.714;2023-08-01T01:34:52;3.42;;;2.80;;
8825;SDS011;4449;50.872;4.714;2023-08-01T01:37:20;3.00;;;2.90;;
8825;SDS011;4449;50.872;4.714;2023-08-01T01:39:49;3.00;;;2.67;;
8825;SDS011;4449;50.872;4.714;2023-08-01T01:42:17;4.35;;;2.58;;
8825;SDS011;4449;50.872;4.714;2023-08-01T01:44:44;3.65;;;2.83;;
8825;SDS011;4449;50.872;4.714;2023-08-01T01:47:12;3.10;;;2.78;;
8825;SDS011;4449;50.872;4.714;2023-08-01T01:49:40;3.88;;;2.67;;
8825;SDS011;4449;50.872;4.714;2023-08-01T01:52:08;3.45;;;3.00;;
8825;SDS011;4449;50.872;4.714;2023-08-01T01:54:35;3.30;;;3.00;;
8825;SDS011;4449;50.872;4.714;2023-08-01T01:57:05;6.60;;;3.20;;
8825;SDS011;4449;50.872;4.714;2023-08-01T01:59:32;3.27;;;2.97;;
8825;SDS011;4449;50.872;4.714;2023-08-01T02:02:00;3.10;;;2.90;;
8825;SDS011;4449;50.872;4.714;2023-08-01T02:04:29;3.92;;;3.17;;
8825;SDS011;4449;50.872;4.714;2023-08-01T02:06:57;4.90;;;3.30;;
8825;SDS011;4449;50.872;4.714;2023-08-01T02:09:24;4.60;;;3.35;;
8825;SDS011;4449;50.872;4.714;2023-08-01T02:11:52;4.03;;;3.35;;
8825;SDS011;4449;50.872;4.714;2023-08-01T02:14:21;4.43;;;2.83;;
8825;SDS011;4449;50.872;4.714;2023-08-01T02:16:49;4.07;;;3.28;;
8825;SDS011;4449;50.872;4.714;2023-08-01T02:19:17;7.32;;;3.53;;
8825;SDS011;4449;50.872;4.714;2023-08-01T02:21:44;4.85;;;3.00;;
8825;SDS011;4449;50.872;4.714;2023-08-01T02:24:12;4.20;;;3.00;;
8825;SDS011;4449;50.872;4.714;2023-08-01T02:26:40;3.90;;;3.28;;
8825;SDS011;4449;50.872;4.714;2023-08-01T02:29:08;4.83;;;3.03;;
8825;SDS011;4449;50.872;4.714;2023-08-01T02:31:37;4.53;;;3.10;;
8825;SDS011;4449;50.872;4.714;2023-08-01T02:34:05;3.80;;;3.00;;
8825;SDS011;4449;50.872;4.714;2023-08-01T02:36:32;4.07;;;3.60;;
8825;SDS011;4449;50.872;4.714;2023-08-01T02:39:00;5.47;;;3.33;;
8825;SDS011;4449;50.872;4.714;2023-08-01T02:41:28;7.65;;;3.58;;
8825;SDS011;4449;50.872;4.714;2023-08-01T02:43:56;4.93;;;3.40;;
8825;SDS011;4449;50.872;4.714;2023-08-01T02:46:23;5.28;;;3.80;;
8825;SDS011;4449;50.872;4.714;2023-08-01T02:48:54;5.40;;;3.70;;
8825;SDS011;4449;50.872;4.714;2023-08-01T02:51:22;10.25;;;4.05;;
8825;SDS011;4449;50.872;4.714;2023-08-01T02:53:50;6.95;;;3.83;;
8825;SDS011;4449;50.872;4.714;2023-08-01T02:56:17;7.10;;;4.00;;
8825;SDS011;4449;50.872;4.714;2023-08-01T02:58:45;5.93;;;4.15;;
8825;SDS011;4449;50.872;4.714;2023-08-01T03:01:13;5.63;;;4.03;;
8825;SDS011;4449;50.872;4.714;2023-08-01T03:03:41;9.27;;;4.03;;
8825;SDS011;4449;50.872;4.714;2023-08-01T03:06:10;7.07;;;4.13;;
8825;SDS011;4449;50.872;4.714;2023-08-01T03:08:39;4.82;;;3.97;;
8825;SDS011;4449;50.872;4.714;2023-08-01T03:11:07;5.47;;;4.18;;
8825;SDS011;4449;50.872;4.714;2023-08-01T03:13:35;7.27;;;4.43;;
8825;SDS011;4449;50.872;4.714;2023-08-01T03:16:02;9.07;;;4.30;;
8825;SDS011;4449;50.872;4.714;2023-08-01T03:18:31;6.55;;;3.95;;
8825;SDS011;4449;50.872;4.714;2023-08-01T03:20:58;6.82;;;4.28;;
8825;SDS011;4449;50.872;4.714;2023-08-01T03:23:27;4.78;;;4.05;;
8825;SDS011;4449;50.872;4.714;2023-08-01T03:25:55;5.95;;;4.63;;
8825;SDS011;4449;50.872;4.714;2023-08-01T03:28:23;5.82;;;4.30;;
8825;SDS011;4449;50.872;4.714;2023-08-01T03:30:51;5.55;;;4.90;;
8825;SDS011;4449;50.872;4.714;2023-08-01T03:33:19;4.97;;;4.35;;
8825;SDS011;4449;50.872;4.714;2023-08-01T03:35:47;7.78;;;4.70;;
8825;SDS011;4449;50.872;4.714;2023-08-01T03:38:15;8.05;;;5.25;;
8825;SDS011;4449;50.872;4.714;2023-08-01T03:40:44;7.23;;;5.20;;
8825;SDS011;4449;50.872;4.714;2023-08-01T03:43:12;7.30;;;5.07;;
8825;SDS011;4449;50.872;4.714;2023-08-01T03:45:39;9.25;;;5.00;;
8825;SDS011;4449;50.872;4.714;2023-08-01T03:48:07;6.47;;;4.70;;
8825;SDS011;4449;50.872;4.714;2023-08-01T03:50:35;11.70;;;4.60;;
8825;SDS011;4449;50.872;4.714;2023-08-01T03:53:02;8.32;;;5.00;;
8825;SDS011;4449;50.872;4.714;2023-08-01T03:55:30;7.93;;;5.68;;
8825;SDS011;4449;50.872;4.714;2023-08-01T03:57:59;9.02;;;5.03;;
8825;SDS011;4449;50.872;4.714;2023-08-01T04:00:26;6.75;;;5.15;;
8825;SDS011;4449;50.872;4.714;2023-08-01T04:02:57;10.23;;;5.00;;
8825;SDS011;4449;50.872;4.714;2023-08-01T04:05:25;7.88;;;5.43;;
8825;SDS011;4449;50.872;4.714;2023-08-01T04:07:53;11.77;;;5.57;;
8825;SDS011;4449;50.872;4.714;2023-08-01T04:10:21;9.98;;;5.20;;
8825;SDS011;4449;50.872;4.714;2023-08-01T04:12:49;10.07;;;5.60;;
8825;SDS011;4449;50.872;4.714;2023-08-01T04:15:18;10.23;;;5.55;;
8825;SDS011;4449;50.872;4.714;2023-08-01T04:17:46;11.13;;;5.70;;
8825;SDS011;4449;50.872;4.714;2023-08-01T04:20:14;8.90;;;5.27;;
8825;SDS011;4449;50.872;4.714;2023-08-01T04:22:41;10.20;;;5.25;;
8825;SDS011;4449;50.872;4.714;2023-08-01T04:25:09;11.50;;;5.63;;
8825;SDS011;4449;50.872;4.714;2023-08-01T04:27:37;9.60;;;4.97;;
8825;SDS011;4449;50.872;4.714;2023-08-01T04:30:05;7.10;;;5.03;;
8825;SDS011;4449;50.872;4.714;2023-08-01T04:32:34;9.00;;;5.00;;
8825;SDS011;4449;50.872;4.714;2023-08-01T04:35:02;9.02;;;5.15;;
8825;SDS011;4449;50.872;4.714;2023-08-01T04:37:30;10.27;;;5.22;;
8825;SDS011;4449;50.872;4.714;2023-08-01T04:39:58;9.10;;;4.95;;
8825;SDS011;4449;50.872;4.714;2023-08-01T04:42:26;10.32;;;5.20;;
8825;SDS011;4449;50.872;4.714;2023-08-01T04:44:54;8.73;;;5.32;;
8825;SDS011;4449;50.872;4.714;2023-08-01T04:47:22;12.10;;;5.68;;
8825;SDS011;4449;50.872;4.714;2023-08-01T04:49:51;11.35;;;6.07;;
8825;SDS011;4449;50.872;4.714;2023-08-01T04:52:18;12.43;;;6.10;;
8825;SDS011;4449;50.872;4.714;2023-08-01T04:54:46;9.85;;;5.82;;
8825;SDS011;4449;50.872;4.714;2023-08-01T04:57:14;10.52;;;6.20;;
8825;SDS011;4449;50.872;4.714;2023-08-01T04:59:41;9.70;;;6.03;;
8825;SDS011;4449;50.872;4.714;2023-08-01T05:02:09;11.70;;;5.83;;
8825;SDS011;4449;50.872;4.714;2023-08-01T05:04:37;8.93;;;6.30;;
8825;SDS011;4449;50.872;4.714;2023-08-01T05:07:06;10.00;;;6.25;;
8825;SDS011;4449;50.872;4.714;2023-08-01T05:09:34;10.77;;;6.30;;
8825;SDS011;4449;50.872;4.714;2023-08-01T05:12:02;11.35;;;6.68;;
8825;SDS011;4449;50.872;4.714;2023-08-01T05:14:30;12.32;;;6.68;;
8825;SDS011;4449;50.872;4.714;2023-08-01T05:16:57;11.23;;;6.40;;
8825;SDS011;4449;50.872;4.714;2023-08-01T05:19:25;9.77;;;5.88;;
8825;SDS011;4449;50.872;4.714;2023-08-01T05:21:53;9.05;;;5.43;;
8825;SDS011;4449;50.872;4.714;2023-08-01T05:24:22;9.50;;;6.10;;
8825;SDS011;4449;50.872;4.714;2023-08-01T05:26:50;9.48;;;5.65;;
8825;SDS011;4449;50.872;4.714;2023-08-01T05:29:18;11.93;;;5.60;;
8825;SDS011;4449;50.872;4.714;2023-08-01T05:31:45;15.18;;;6.85;;
8825;SDS011;4449;50.872;4.714;2023-08-01T05:34:13;8.95;;;5.70;;
8825;SDS011;4449;50.872;4.714;2023-08-01T05:36:41;8.55;;;5.65;;
8825;SDS011;4449;50.872;4.714;2023-08-01T05:39:08;8.80;;;5.93;;
8825;SDS011;4449;50.872;4.714;2023-08-01T05:41:38;10.02;;;5.70;;
8825;SDS011;4449;50.872;4.714;2023-08-01T05:44:06;8.90;;;5.93;;
8825;SDS011;4449;50.872;4.714;2023-08-01T05:46:33;9.95;;;5.47;;
8825;SDS011;4449;50.872;4.714;2023-08-01T05:49:01;12.20;;;6.45;;
8825;SDS011;4449;50.872;4.714;2023-08-01T05:51:29;11.55;;;5.70;;
8825;SDS011;4449;50.872;4.714;2023-08-01T05:53:57;9.48;;;5.75;;
8825;SDS011;4449;50.872;4.714;2023-08-01T05:56:24;9.63;;;5.80;;
8825;SDS011;4449;50.872;4.714;2023-08-01T05:58:53;12.87;;;6.07;;
8825;SDS011;4449;50.872;4.714;2023-08-01T06:01:21;9.30;;;5.78;;
8825;SDS011;4449;50.872;4.714;2023-08-01T06:03:50;8.45;;;6.00;;
8825;SDS011;4449;50.872;4.714;2023-08-01T06:06:18;9.68;;;5.78;;
8825;SDS011;4449;50.872;4.714;2023-08-01T06:08:45;6.55;;;5.63;;
8825;SDS011;4449;50.872;4.714;2023-08-01T06:11:13;10.57;;;5.88;;
8825;SDS011;4449;50.872;4.714;2023-08-01T06:13:41;10.93;;;6.22;;
8825;SDS011;4449;50.872;4.714;2023-08-01T06:16:10;10.40;;;5.90;;
8825;SDS011;4449;50.872;4.714;2023-08-01T06:18:38;12.40;;;6.25;;
8825;SDS011;4449;50.872;4.714;2023-08-01T06:21:05;12.60;;;6.50;;
8825;SDS011;4449;50.872;4.714;2023-08-01T06:23:33;17.17;;;10.93;;
8825;SDS011;4449;50.872;4.714;2023-08-01T06:26:00;8.57;;;6.60;;
8825;SDS011;4449;50.872;4.714;2023-08-01T06:28:28;12.68;;;6.55;;
8825;SDS011;4449;50.872;4.714;2023-08-01T06:30:56;12.02;;;6.30;;
8825;SDS011;4449;50.872;4.714;2023-08-01T06:33:25;7.38;;;5.60;;
8825;SDS011;4449;50.872;4.714;2023-08-01T06:35:53;13.07;;;6.13;;
8825;SDS011;4449;50.872;4.714;2023-08-01T06:38:21;10.32;;;6.28;;
8825;SDS011;4449;50.872;4.714;2023-08-01T06:40:48;11.85;;;5.78;;
8825;SDS011;4449;50.872;4.714;2023-08-01T06:43:16;10.45;;;6.40;;
8825;SDS011;4449;50.872;4.714;2023-08-01T06:45:44;12.55;;;6.18;;
8825;SDS011;4449;50.872;4.714;2023-08-01T06:48:12;8.20;;;5.35;;
8825;SDS011;4449;50.872;4.714;2023-08-01T06:50:41;11.00;;;6.60;;
8825;SDS011;4449;50.872;4.714;2023-08-01T06:53:09;14.90;;;6.07;;
8825;SDS011;4449;50.872;4.714;2023-08-01T06:55:36;10.23;;;5.43;;
8825;SDS011;4449;50.872;4.714;2023-08-01T06:58:05;9.35;;;5.65;;
8825;SDS011;4449;50.872;4.714;2023-08-01T07:00:33;11.18;;;5.70;;
8825;SDS011;4449;50.872;4.714;2023-08-01T07:03:01;11.70;;;6.75;;
8825;SDS011;4449;50.872;4.714;2023-08-01T07:05:28;9.35;;;5.88;;
8825;SDS011;4449;50.872;4.714;2023-08-01T07:07:58;9.77;;;5.83;;
8825;SDS011;4449;50.872;4.714;2023-08-01T07:10:25;9.05;;;5.97;;
8825;SDS011;4449;50.872;4.714;2023-08-01T07:12:53;11.30;;;6.15;;
8825;SDS011;4449;50.872;4.714;2023-08-01T07:15:21;14.75;;;6.78;;
8825;SDS011;4449;50.872;4.714;2023-08-01T07:17:48;13.60;;;6.75;;
8825;SDS011;4449;50.872;4.714;2023-08-01T07:20:16;14.88;;;6.68;;
8825;SDS011;4449;50.872;4.714;2023-08-01T07:22:44;12.80;;;5.75;;
8825;SDS011;4449;50.872;4.714;2023-08-01T07:25:13;9.70;;;5.95;;
8825;SDS011;4449;50.872;4.714;2023-08-01T07:27:42;6.70;;;5.20;;
8825;SDS011;4449;50.872;4.714;2023-08-01T07:30:09;13.60;;;6.28;;
8825;SDS011;4449;50.872;4.714;2023-08-01T07:32:37;9.13;;;5.50;;
8825;SDS011;4449;50.872;4.714;2023-08-01T07:35:05;7.50;;;5.50;;
8825;SDS011;4449;50.872;4.714;2023-08-01T07:37:33;8.98;;;5.22;;
8825;SDS011;4449;50.872;4.714;2023-08-01T07:40:03;6.53;;;4.63;;
8825;SDS011;4449;50.872;4.714;2023-08-01T07:42:32;5.07;;;4.25;;
8825;SDS011;4449;50.872;4.714;2023-08-01T07:45:00;8.40;;;4.93;;
8825;SDS011;4449;50.872;4.714;2023-08-01T07:47:27;10.25;;;5.40;;
8825;SDS011;4449;50.872;4.714;2023-08-01T07:49:55;12.07;;;5.55;;
8825;SDS011;4449;50.872;4.714;2023-08-01T07:52:23;7.20;;;4.75;;
8825;SDS011;4449;50.872;4.714;2023-08-01T07:54:51;11.55;;;4.60;;
8825;SDS011;4449;50.872;4.714;2023-08-01T07:57:21;9.10;;;4.05;;
8825;SDS011;4449;50.872;4.714;2023-08-01T07:59:50;8.98;;;4.07;;
8825;SDS011;4449;50.872;4.714;2023-08-01T08:02:18;6.85;;;4.30;;
8825;SDS011;4449;50.872;4.714;2023-08-01T08:04:46;6.25;;;4.20;;
8825;SDS011;4449;50.872;4.714;2023-08-01T08:07:13;10.43;;;4.47;;
8825;SDS011;4449;50.872;4.714;2023-08-01T08:09:41;9.77;;;4.32;;
8825;SDS011;4449;50.872;4.714;2023-08-01T08:12:09;5.70;;;4.15;;
8825;SDS011;4449;50.872;4.714;2023-08-01T08:14:37;7.60;;;4.88;;
8825;SDS011;4449;50.872;4.714;2023-08-01T08:17:06;7.05;;;4.50;;
8825;SDS011;4449;50.872;4.714;2023-08-01T08:19:33;9.27;;;5.18;;
8825;SDS011;4449;50.872;4.714;2023-08-01T08:22:01;11.65;;;4.70;;
8825;SDS011;4449;50.872;4.714;2023-08-01T08:24:29;10.83;;;4.97;;
8825;SDS011;4449;50.872;4.714;2023-08-01T08:26:57;9.17;;;5.00;;
8825;SDS011;4449;50.872;4.714;2023-08-01T08:29:25;10.60;;;5.33;;
8825;SDS011;4449;50.872;4.714;2023-08-01T08:31:52;9.95;;;4.72;;
8825;SDS011;4449;50.872;4.714;2023-08-01T08:34:22;9.25;;;4.70;;
8825;SDS011;4449;50.872;4.714;2023-08-01T08:36:49;6.72;;;4.03;;
8825;SDS011;4449;50.872;4.714;2023-08-01T08:39:17;9.10;;;4.18;;
8825;SDS011;4449;50.872;4.714;2023-08-01T08:41:46;6.97;;;4.28;;
8825;SDS011;4449;50.872;4.714;2023-08-01T08:44:14;10.07;;;4.32;;
8825;SDS011;4449;50.872;4.714;2023-08-01T08:46:43;9.95;;;4.43;;
8825;SDS011;4449;50.872;4.714;2023-08-01T08:49:11;6.60;;;3.70;;
8825;SDS011;4449;50.872;4.714;2023-08-01T08:51:42;7.95;;;3.78;;
8825;SDS011;4449;50.872;4.714;2023-08-01T08:54:11;8.00;;;3.90;;
8825;SDS011;4449;50.872;4.714;2023-08-01T08:56:38;10.18;;;3.75;;
8825;SDS011;4449;50.872;4.714;2023-08-01T08:59:07;6.03;;;3.10;;
8825;SDS011;4449;50.872;4.714;2023-08-01T09:01:35;6.40;;;2.92;;
8825;SDS011;4449;50.872;4.714;2023-08-01T09:04:03;5.70;;;3.50;;
8825;SDS011;4449;50.872;4.714;2023-08-01T09:06:31;14.33;;;4.10;;
8825;SDS011;4449;50.872;4.714;2023-08-01T09:09:02;6.73;;;3.27;;
8825;SDS011;4449;50.872;4.714;2023-08-01T09:11:37;7.32;;;2.95;;
8825;SDS011;4449;50.872;4.714;2023-08-01T09:14:06;7.60;;;3.00;;
8825;SDS011;4449;50.872;4.714;2023-08-01T09:16:34;5.90;;;3.30;;
8825;SDS011;4449;50.872;4.714;2023-08-01T09:19:02;6.57;;;3.15;;
8825;SDS011;4449;50.872;4.714;2023-08-01T09:34:32;2.43;;;2.23;;
8825;SDS011;4449;50.872;4.714;2023-08-01T09:37:00;4.73;;;1.93;;
8825;SDS011;4449;50.872;4.714;2023-08-01T09:39:27;4.43;;;2.27;;
8825;SDS011;4449;50.872;4.714;2023-08-01T09:41:55;4.03;;;2.03;;
8825;SDS011;4449;50.872;4.714;2023-08-01T09:44:23;3.10;;;2.30;;
8825;SDS011;4449;50.872;4.714;2023-08-01T09:46:55;5.67;;;2.50;;
8825;SDS011;4449;50.872;4.714;2023-08-01T09:51:52;4.80;;;2.63;;
8825;SDS011;4449;50.872;4.714;2023-08-01T09:54:20;4.20;;;2.30;;
8825;SDS011;4449;50.872;4.714;2023-08-01T09:56:48;5.85;;;3.30;;
8825;SDS011;4449;50.872;4.714;2023-08-01T09:59:17;4.53;;;2.88;;
8825;SDS011;4449;50.872;4.714;2023-08-01T10:01:46;11.50;;;3.42;;
8825;SDS011;4449;50.872;4.714;2023-08-01T10:04:16;11.05;;;3.30;;
8825;SDS011;4449;50.872;4.714;2023-08-01T10:06:46;7.90;;;2.70;;
8825;SDS011;4449;50.872;4.714;2023-08-01T10:09:18;3.05;;;2.15;;
8825;SDS011;4449;50.872;4.714;2023-08-01T10:11:46;4.93;;;2.58;;
8825;SDS011;4449;50.872;4.714;2023-08-01T10:14:14;5.90;;;2.70;;
8825;SDS011;4449;50.872;4.714;2023-08-01T10:16:42;3.43;;;2.40;;
8825;SDS011;4449;50.872;4.714;2023-08-01T10:19:09;3.65;;;2.20;;
8825;SDS011;4449;50.872;4.714;2023-08-01T10:21:38;5.10;;;2.33;;
8825;SDS011;4449;50.872;4.714;2023-08-01T10:24:06;5.95;;;2.58;;
8825;SDS011;4449;50.872;4.714;2023-08-01T10:26:36;3.75;;;2.60;;
8825;SDS011;4449;50.872;4.714;2023-08-01T10:29:03;4.55;;;2.40;;
8825;SDS011;4449;50.872;4.714;2023-08-01T10:31:31;4.32;;;2.67;;
8825;SDS011;4449;50.872;4.714;2023-08-01T10:34:05;3.03;;;2.10;;
8825;SDS011;4449;50.872;4.714;2023-08-01T10:36:33;3.92;;;2.40;;
8825;SDS011;4449;50.872;4.714;2023-08-01T10:39:01;2.50;;;2.00;;
8825;SDS011;4449;50.872;4.714;2023-08-01T10:41:30;2.47;;;2.27;;
8825;SDS011;4449;50.872;4.714;2023-08-01T10:44:09;3.80;;;2.30;;
8825;SDS011;4449;50.872;4.714;2023-08-01T10:46:47;3.33;;;2.67;;
8825;SDS011;4449;50.872;4.714;2023-08-01T10:49:15;2.90;;;2.47;;
8825;SDS011;4449;50.872;4.714;2023-08-01T10:51:44;6.43;;;3.17;;
8825;SDS011;4449;50.872;4.714;2023-08-01T10:54:18;6.00;;;2.57;;
8825;SDS011;4449;50.872;4.714;2023-08-01T10:56:48;2.47;;;2.20;;
8825;SDS011;4449;50.872;4.714;2023-08-01T10:59:17;3.45;;;2.53;;
8825;SDS011;4449;50.872;4.714;2023-08-01T11:01:47;2.63;;;2.20;;
8825;SDS011;4449;50.872;4.714;2023-08-01T11:04:15;2.97;;;2.22;;
8825;SDS011;4449;50.872;4.714;2023-08-01T11:06:43;3.33;;;1.80;;
8825;SDS011;4449;50.872;4.714;2023-08-01T11:09:15;3.50;;;2.10;;
8825;SDS011;4449;50.872;4.714;2023-08-01T11:11:43;3.37;;;2.20;;
8825;SDS011;4449;50.872;4.714;2023-08-01T11:14:11;4.77;;;2.10;;
8825;SDS011;4449;50.872;4.714;2023-08-01T11:16:41;6.77;;;2.60;;
8825;SDS011;4449;50.872;4.714;2023-08-01T11:19:17;4.67;;;2.20;;
8825;SDS011;4449;50.872;4.714;2023-08-01T12:19:47;2.43;;;2.23;;
8825;SDS011;4449;50.872;4.714;2023-08-01T12:22:16;4.93;;;2.10;;
8825;SDS011;4449;50.872;4.714;2023-08-01T12:24:43;7.17;;;2.43;;
8825;SDS011;4449;50.872;4.714;2023-08-01T12:27:11;2.70;;;2.03;;
8825;SDS011;4449;50.872;4.714;2023-08-01T12:29:40;4.83;;;2.57;;
8825;SDS011;4449;50.872;4.714;2023-08-01T12:32:08;2.33;;;2.13;;
8825;SDS011;4449;50.872;4.714;2023-08-01T12:34:36;2.43;;;2.20;;
8825;SDS011;4449;50.872;4.714;2023-08-01T12:37:05;1.57;;;1.47;;
8825;SDS011;4449;50.872;4.714;2023-08-01T12:39:33;1.97;;;1.83;;
8825;SDS011;4449;50.872;4.714;2023-08-01T12:42:00;1.93;;;1.60;;
8825;SDS011;4449;50.872;4.714;2023-08-01T12:44:28;5.77;;;2.10;;
8825;SDS011;4449;50.872;4.714;2023-08-01T12:46:56;3.23;;;2.03;;
8825;SDS011;4449;50.872;4.714;2023-08-01T12:49:24;3.97;;;1.83;;
8825;SDS011;4449;50.872;4.714;2023-08-01T12:51:51;5.53;;;2.27;;
8825;SDS011;4449;50.872;4.714;2023-08-01T12:54:21;2.53;;;1.60;;
8825;SDS011;4449;50.872;4.714;2023-08-01T12:56:49;2.47;;;1.77;;
8825;SDS011;4449;50.872;4.714;2023-08-01T12:59:16;2.37;;;2.17;;
8825;SDS011;4449;50.872;4.714;2023-08-01T13:01:44;6.17;;;1.90;;
8825;SDS011;4449;50.872;4.714;2023-08-01T13:04:12;3.97;;;2.00;;
8825;SDS011;4449;50.872;4.714;2023-08-01T13:06:39;2.37;;;2.00;;
8825;SDS011;4449;50.872;4.714;2023-08-01T13:09:07;2.97;;;1.70;;
8825;SDS011;4449;50.872;4.714;2023-08-01T13:11:38;3.43;;;1.77;;
8825;SDS011;4449;50.872;4.714;2023-08-01T13:14:08;2.97;;;1.60;;
8825;SDS011;4449;50.872;4.714;2023-08-01T13:16:36;6.63;;;1.70;;
8825;SDS011;4449;50.872;4.714;2023-08-01T13:19:04;2.93;;;1.60;;
8825;SDS011;4449;50.872;4.714;2023-08-01T13:21:31;4.57;;;1.70;;
8825;SDS011;4449;50.872;4.714;2023-08-01T13:23:59;1.90;;;1.47;;
8825;SDS011;4449;50.872;4.714;2023-08-01T13:26:29;1.70;;;1.60;;
8825;SDS011;4449;50.872;4.714;2023-08-01T13:28:59;2.37;;;1.70;;
8825;SDS011;4449;50.872;4.714;2023-08-01T13:31:27;2.07;;;1.60;;
8825;SDS011;4449;50.872;4.714;2023-08-01T13:33:55;2.53;;;1.80;;
8825;SDS011;4449;50.872;4.714;2023-08-01T13:36:23;5.83;;;1.67;;
8825;SDS011;4449;50.872;4.714;2023-08-01T13:38:51;5.90;;;1.83;;
8825;SDS011;4449;50.872;4.714;2023-08-01T13:41:18;1.70;;;1.57;;
8825;SDS011;4449;50.872;4.714;2023-08-01T13:43:46;4.10;;;1.53;;
8825;SDS011;4449;50.872;4.714;2023-08-01T14:16:40;4.67;;;2.10;;
8825;SDS011;4449;50.872;4.714;2023-08-01T14:19:08;2.23;;;2.00;;
8825;SDS011;4449;50.872;4.714;2023-08-01T14:21:36;2.93;;;1.43;;
8825;SDS011;4449;50.872;4.714;2023-08-01T14:24:03;3.00;;;1.50;;
8825;SDS011;4449;50.872;4.714;2023-08-01T14:26:31;5.30;;;1.47;;
8825;SDS011;4449;50.872;4.714;2023-08-01T14:29:03;3.00;;;1.37;;
8825;SDS011;4449;50.872;4.714;2023-08-01T14:31:31;2.33;;;1.70;;
8825;SDS011;4449;50.872;4.714;2023-08-01T14:34:00;3.55;;;2.05;;
8825;SDS011;4449;50.872;4.714;2023-08-01T14:36:27;5.90;;;1.87;;
8825;SDS011;4449;50.872;4.714;2023-08-01T14:38:55;2.03;;;1.80;;
8825;SDS011;4449;50.872;4.714;2023-08-01T14:41:23;3.90;;;2.13;;
8825;SDS011;4449;50.872;4.714;2023-08-01T14:43:51;3.75;;;2.00;;
8825;SDS011;4449;50.872;4.714;2023-08-01T14:46:19;2.00;;;1.60;;
8825;SDS011;4449;50.872;4.714;2023-08-01T14:48:46;2.58;;;1.63;;
8825;SDS011;4449;50.872;4.714;2023-08-01T14:51:16;2.55;;;1.90;;
8825;SDS011;4449;50.872;4.714;2023-08-01T14:53:44;3.30;;;2.17;;
8825;SDS011;4449;50.872;4.714;2023-08-01T14:56:12;4.88;;;1.90;;
8825;SDS011;4449;50.872;4.714;2023-08-01T14:58:39;3.92;;;1.98;;
8825;SDS011;4449;50.872;4.714;2023-08-01T15:01:11;2.88;;;1.75;;
8825;SDS011;4449;50.872;4.714;2023-08-01T15:03:39;2.25;;;2.03;;
8825;SDS011;4449;50.872;4.714;2023-08-01T15:06:07;6.38;;;2.30;;
8825;SDS011;4449;50.872;4.714;2023-08-01T15:08:37;6.77;;;2.37;;
8825;SDS011;4449;50.872;4.714;2023-08-01T15:11:05;2.00;;;1.87;;
8825;SDS011;4449;50.872;4.714;2023-08-01T15:13:33;4.93;;;1.93;;
8825;SDS011;4449;50.872;4.714;2023-08-01T15:16:00;3.60;;;1.87;;
8825;SDS011;4449;50.872;4.714;2023-08-01T15:18:28;4.60;;;2.07;;
8825;SDS011;4449;50.872;4.714;2023-08-01T15:20:56;9.47;;;2.20;;
8825;SDS011;4449;50.872;4.714;2023-08-01T15:23:24;3.43;;;2.00;;
8825;SDS011;4449;50.872;4.714;2023-08-01T15:25:54;7.07;;;1.90;;
8825;SDS011;4449;50.872;4.714;2023-08-01T15:28:22;6.33;;;1.80;;
8825;SDS011;4449;50.872;4.714;2023-08-01T15:31:00;7.13;;;1.87;;
8825;SDS011;4449;50.872;4.714;2023-08-01T15:33:29;3.33;;;1.80;;
8825;SDS011;4449;50.872;4.714;2023-08-01T15:50:07;5.18;;;2.20;;
8825;SDS011;4449;50.872;4.714;2023-08-01T15:52:34;5.15;;;2.55;;
8825;SDS011;4449;50.872;4.714;2023-08-01T15:55:02;6.60;;;2.65;;
8825;SDS011;4449;50.872;4.714;2023-08-01T15:57:30;5.10;;;2.17;;
8825;SDS011;4449;50.872;4.714;2023-08-01T15:59:58;4.10;;;2.60;;
8825;SDS011;4449;50.872;4.714;2023-08-01T16:02:26;3.07;;;2.27;;
8825;SDS011;4449;50.872;4.714;2023-08-01T16:04:53;5.25;;;2.35;;
8825;SDS011;4449;50.872;4.714;2023-08-01T16:07:22;4.32;;;2.42;;
8825;SDS011;4449;50.872;4.714;2023-08-01T16:09:50;4.55;;;2.53;;
8825;SDS011;4449;50.872;4.714;2023-08-01T16:12:17;5.70;;;2.40;;
8825;SDS011;4449;50.872;4.714;2023-08-01T16:14:45;4.55;;;2.30;;
8825;SDS011;4449;50.872;4.714;2023-08-01T16:17:13;4.07;;;2.35;;
8825;SDS011;4449;50.872;4.714;2023-08-01T16:19:40;4.85;;;2.50;;
8825;SDS011;4449;50.872;4.714;2023-08-01T16:22:08;4.93;;;2.50;;
8825;SDS011;4449;50.872;4.714;2023-08-01T16:24:37;3.40;;;2.58;;
8825;SDS011;4449;50.872;4.714;2023-08-01T16:27:05;5.18;;;3.50;;
8825;SDS011;4449;50.872;4.714;2023-08-01T16:29:32;7.23;;;2.77;;
8825;SDS011;4449;50.872;4.714;2023-08-01T16:32:00;3.50;;;2.40;;
8825;SDS011;4449;50.872;4.714;2023-08-01T16:34:28;8.05;;;3.10;;
8825;SDS011;4449;50.872;4.714;2023-08-01T16:36:55;4.93;;;2.42;;
8825;SDS011;4449;50.872;4.714;2023-08-01T16:39:23;6.88;;;3.13;;
8825;SDS011;4449;50.872;4.714;2023-08-01T16:41:53;6.25;;;2.90;;
8825;SDS011;4449;50.872;4.714;2023-08-01T16:44:21;5.05;;;2.53;;
8825;SDS011;4449;50.872;4.714;2023-08-01T16:46:48;4.50;;;2.75;;
8825;SDS011;4449;50.872;4.714;2023-08-01T16:49:16;5.68;;;2.58;;
8825;SDS011;4449;50.872;4.714;2023-08-01T16:51:44;5.35;;;2.78;;
8825;SDS011;4449;50.872;4.714;2023-08-01T16:54:11;5.10;;;2.60;;
8825;SDS011;4449;50.872;4.714;2023-08-01T16:56:39;4.57;;;2.58;;
8825;SDS011;4449;50.872;4.714;2023-08-01T16:59:08;5.20;;;2.10;;
8825;SDS011;4449;50.872;4.714;2023-08-01T17:01:36;4.43;;;2.20;;
8825;SDS011;4449;50.872;4.714;2023-08-01T17:04:04;4.13;;;2.60;;
8825;SDS011;4449;50.872;4.714;2023-08-01T17:06:32;3.90;;;2.30;;
8825;SDS011;4449;50.872;4.714;2023-08-01T17:09:00;3.80;;;2.07;;
8825;SDS011;4449;50.872;4.714;2023-08-01T17:11:28;5.40;;;2.30;;
8825;SDS011;4449;50.872;4.714;2023-08-01T17:13:55;4.43;;;2.17;;
8825;SDS011;4449;50.872;4.714;2023-08-01T17:16:25;3.60;;;2.00;;
8825;SDS011;4449;50.872;4.714;2023-08-01T17:18:53;2.83;;;1.80;;